Time;durP1;ratioP1;P1;durP2;ratioP2;P2;SDS_P1;SDS_P2;PMS_P1;PMS_P2;Temp;Humidity;BMP_temperature;BMP_pressure;BME280_temperature;BME280_humidity;BME280_pressure;Samples;Min_cycle;Max_cycle;Signal;HPM_P1;HPM_P2
2022/01/23 00:00:51;;;;;;;28.52;13.90;;;3.50;99.90;;;;;;5071644;28;20028;-69
2022/01/23 00:03:18;;;;;;;30.17;16.30;;;3.50;99.90;;;;;;5072540;28;20028;-70
2022/01/23 00:05:46;;;;;;;33.17;17.85;;;3.50;99.90;;;;;;5072333;28;20043;-70
2022/01/23 00:08:15;;;;;;;28.80;15.57;;;3.50;99.90;;;;;;5071453;28;20111;-70
2022/01/23 00:10:42;;;;;;;31.52;15.30;;;3.50;99.90;;;;;;5074795;28;20035;-70
2022/01/23 00:13:21;;;;;;;28.10;15.70;;;3.50;99.90;;;;;;5071013;28;20397;-69
2022/01/23 00:18:31;;;;;;;26.83;14.32;;;3.50;99.90;;;;;;5078861;28;20031;-69
2022/01/23 00:20:57;;;;;;;28.83;15.85;;;3.50;99.90;;;;;;5076256;28;20040;-70
2022/01/23 00:31:35;;;;;;;30.10;15.73;;;3.50;99.90;;;;;;5092794;28;20438;-69
2022/01/23 00:34:01;;;;;;;31.75;15.98;;;3.50;99.90;;;;;;5090830;28;20024;-69
2022/01/23 00:36:28;;;;;;;29.10;15.45;;;3.50;99.90;;;;;;5074944;28;20475;-69
2022/01/23 00:38:55;;;;;;;33.22;17.60;;;3.60;99.90;;;;;;5065867;28;20054;-69
2022/01/23 00:41:21;;;;;;;31.83;16.05;;;3.50;99.90;;;;;;5075476;28;20043;-69
2022/01/23 00:43:49;;;;;;;28.67;16.38;;;3.50;99.90;;;;;;5092152;28;20548;-69
2022/01/23 00:51:26;;;;;;;31.77;16.30;;;3.50;99.90;;;;;;5093283;28;20535;-70
2022/01/23 00:53:52;;;;;;;30.45;16.10;;;3.40;99.90;;;;;;5070997;28;20024;-70
2022/01/23 00:56:18;;;;;;;33.03;16.23;;;3.50;99.90;;;;;;5091010;28;20542;-69
2022/01/23 00:58:44;;;;;;;37.72;18.38;;;3.40;99.90;;;;;;5074635;28;20214;-70
2022/01/23 01:01:11;;;;;;;36.38;17.08;;;3.50;99.90;;;;;;5075706;28;20031;-69
2022/01/23 01:03:36;;;;;;;36.53;17.08;;;3.50;99.90;;;;;;5075342;28;20585;-69
2022/01/23 01:06:02;;;;;;;32.03;16.77;;;3.50;99.90;;;;;;5075262;28;20119;-70
2022/01/23 01:08:28;;;;;;;29.52;15.48;;;3.50;99.90;;;;;;5091159;28;20035;-69
2022/01/23 01:16:50;;;;;;;32.08;16.10;;;3.50;99.90;;;;;;5087973;28;20027;-70
2022/01/23 01:35:48;;;;;;;31.55;16.33;;;3.60;99.90;;;;;;5089727;28;20028;-70
2022/01/23 01:38:00;;;;;;;30.80;15.90;;;3.60;99.90;;;;;;5085398;28;20043;-69
2022/01/23 01:40:26;;;;;;;26.75;14.80;;;3.60;99.90;;;;;;5074032;28;20060;-69
2022/01/23 01:42:53;;;;;;;29.20;15.27;;;3.70;99.90;;;;;;5075367;28;20028;-69
2022/01/23 01:45:26;;;;;;;32.03;16.50;;;3.70;99.90;;;;;;5074012;28;20032;-70
2022/01/23 01:47:55;;;;;;;30.70;15.27;;;3.70;99.90;;;;;;5073048;28;20039;-69
2022/01/23 01:50:21;;;;;;;29.60;15.27;;;3.70;99.90;;;;;;5074613;28;20101;-69
2022/01/23 01:52:47;;;;;;;31.92;16.00;;;3.70;99.90;;;;;;5073903;28;20523;-69
2022/01/23 01:55:20;;;;;;;34.38;17.75;;;3.70;99.90;;;;;;5088949;28;20028;-70
2022/01/23 01:57:53;;;;;;;28.27;15.35;;;3.70;99.90;;;;;;5074631;28;20063;-70
2022/01/23 02:00:47;;;;;;;31.40;16.15;;;3.70;99.90;;;;;;5073306;28;20481;-69
2022/01/23 02:08:38;;;;;;;31.15;15.15;;;3.80;99.90;;;;;;5091090;28;20074;-69
2022/01/23 02:11:13;;;;;;;29.35;15.23;;;3.80;99.90;;;;;;5073942;28;20446;-70
2022/01/23 02:13:48;;;;;;;25.17;14.35;;;3.70;99.90;;;;;;5073634;28;20052;-69
2022/01/23 02:54:51;;;;;;;18.00;10.57;;;3.40;99.90;;;;;;5086155;28;20028;-70
2022/01/23 02:57:22;;;;;;;20.25;10.85;;;3.40;99.90;;;;;;5071002;28;20396;-70
2022/01/23 02:59:49;;;;;;;14.98;9.52;;;3.40;99.90;;;;;;5072703;28;20016;-68
2022/01/23 03:04:59;;;;;;;19.35;11.00;;;3.40;99.90;;;;;;5083804;28;20032;-69
2022/01/23 03:10:02;;;;;;;20.70;11.50;;;3.40;99.90;;;;;;5090900;28;20155;-69
2022/01/23 03:15:59;;;;;;;19.20;10.57;;;3.50;99.90;;;;;;5065183;28;20040;-69
2022/01/23 03:24:11;;;;;;;22.42;11.15;;;3.50;99.90;;;;;;5091307;28;20396;-69
2022/01/23 03:24:27;;;;;;;18.92;10.57;;;3.50;99.90;;;;;;5089282;28;20115;-70
2022/01/23 03:27:03;;;;;;;22.15;11.13;;;3.60;99.90;;;;;;5072818;28;20028;-69
2022/01/23 03:29:50;;;;;;;22.05;11.88;;;3.50;99.90;;;;;;5071726;28;20024;-69
2022/01/23 03:32:49;;;;;;;19.92;10.65;;;3.60;99.90;;;;;;5081704;28;20031;-69
2022/01/23 03:35:06;;;;;;;22.20;11.45;;;3.60;99.90;;;;;;5080801;28;20032;-69
2022/01/23 03:37:32;;;;;;;24.10;12.57;;;3.60;99.90;;;;;;5067608;28;20036;-70
2022/01/23 03:39:58;;;;;;;23.60;12.18;;;3.60;99.90;;;;;;5083974;28;20107;-69
2022/01/23 03:42:25;;;;;;;22.52;13.15;;;3.50;99.90;;;;;;5072135;28;20028;-70
2022/01/23 03:45:56;;;;;;;24.33;12.90;;;3.50;99.90;;;;;;5071314;28;20039;-68
2022/01/23 03:47:42;;;;;;;23.73;13.10;;;3.50;99.90;;;;;;5065183;28;20055;-70
2022/01/23 03:50:11;;;;;;;24.00;12.85;;;3.50;99.90;;;;;;5089568;28;20503;-69
2022/01/23 03:52:38;;;;;;;25.45;13.50;;;3.50;99.90;;;;;;5070639;28;20036;-68
2022/01/23 03:55:06;;;;;;;25.25;13.65;;;3.40;99.90;;;;;;5070420;28;20085;-70
2022/01/23 03:57:32;;;;;;;27.02;13.23;;;3.40;99.90;;;;;;5072070;28;20020;-69
2022/01/23 03:59:58;;;;;;;27.60;13.63;;;3.40;99.90;;;;;;5088846;28;20072;-66
2022/01/23 04:02:23;;;;;;;22.58;12.80;;;3.40;99.90;;;;;;5070256;28;20114;-70
2022/01/23 04:04:49;;;;;;;25.17;13.20;;;3.40;99.90;;;;;;5062157;28;20142;-70
2022/01/23 04:07:20;;;;;;;26.55;14.35;;;3.40;99.90;;;;;;5087440;28;20082;-68
2022/01/23 04:09:47;;;;;;;24.90;13.27;;;3.40;99.90;;;;;;5071118;28;20032;-67
2022/01/23 04:13:00;;;;;;;26.30;13.70;;;3.40;99.90;;;;;;5071835;28;20028;-68
2022/01/23 04:45:21;;;;;;;22.02;11.32;;;3.20;99.90;;;;;;5089460;28;20062;-69
2022/01/23 05:02:05;;;;;;;27.40;13.48;;;3.20;99.90;;;;;;5087484;28;20097;-70
2022/01/23 05:04:33;;;;;;;30.67;15.32;;;3.20;99.90;;;;;;5063107;28;20391;-68
2022/01/23 05:07:08;;;;;;;30.85;14.88;;;3.20;99.90;;;;;;5073945;28;20052;-69
2022/01/23 05:09:34;;;;;;;29.17;13.75;;;3.30;99.90;;;;;;5074265;28;20028;-69
2022/01/23 05:12:03;;;;;;;31.55;15.00;;;3.30;99.90;;;;;;5074766;28;20040;-69
2022/01/23 05:14:39;;;;;;;31.15;15.13;;;3.30;99.90;;;;;;5076673;28;20025;-69
2022/01/23 05:17:10;;;;;;;29.17;14.70;;;3.30;99.90;;;;;;5074731;28;20024;-70
2022/01/23 05:19:38;;;;;;;32.60;15.20;;;3.30;99.90;;;;;;5074989;28;20028;-69
2022/01/23 05:24:36;;;;;;;31.40;14.63;;;3.20;99.90;;;;;;5092460;28;20035;-69
2022/01/23 05:27:04;;;;;;;29.05;13.93;;;3.20;99.90;;;;;;5073779;28;20023;-67
2022/01/23 05:29:30;;;;;;;27.10;13.57;;;3.30;99.90;;;;;;5073660;28;20444;-70
2022/01/23 05:31:55;;;;;;;32.72;14.98;;;3.30;99.90;;;;;;5075119;28;20085;-68
2022/01/23 05:34:23;;;;;;;27.30;13.98;;;3.30;99.90;;;;;;5072645;28;20027;-68
2022/01/23 05:36:50;;;;;;;25.38;13.73;;;3.30;99.90;;;;;;5074338;28;20020;-68
2022/01/23 05:39:19;;;;;;;24.95;12.60;;;3.30;99.90;;;;;;5072661;28;20020;-68
2022/01/23 05:41:45;;;;;;;26.10;12.48;;;3.20;99.90;;;;;;5074828;28;20020;-68
2022/01/23 05:44:11;;;;;;;26.75;12.43;;;3.30;99.90;;;;;;5080015;28;20490;-68
2022/01/23 05:46:36;;;;;;;23.48;12.13;;;3.30;99.90;;;;;;5074701;28;20104;-68
2022/01/23 05:49:04;;;;;;;26.08;13.30;;;3.30;99.90;;;;;;5072939;28;20071;-68
2022/01/23 05:51:30;;;;;;;29.10;13.57;;;3.30;99.90;;;;;;5074178;28;20401;-68
2022/01/23 05:53:55;;;;;;;26.23;12.95;;;3.30;99.90;;;;;;5091478;28;20063;-68
2022/01/23 05:56:21;;;;;;;28.33;12.50;;;3.20;99.90;;;;;;5074425;28;20028;-68
2022/01/23 05:58:46;;;;;;;29.27;13.48;;;3.20;99.90;;;;;;5073514;28;20035;-67
2022/01/23 06:01:12;;;;;;;25.55;12.68;;;3.20;99.90;;;;;;5068906;28;20035;-68
2022/01/23 06:03:38;;;;;;;29.90;12.90;;;3.30;99.90;;;;;;5081402;28;20452;-68
2022/01/23 06:06:04;;;;;;;26.58;13.55;;;3.30;99.90;;;;;;5087374;28;20028;-67
2022/01/23 06:13:26;;;;;;;29.02;13.70;;;3.30;99.90;;;;;;5094929;28;20043;-70
2022/01/23 06:15:53;;;;;;;25.92;12.88;;;3.30;99.90;;;;;;5091556;28;20042;-70
2022/01/23 06:18:19;;;;;;;26.50;12.98;;;3.30;99.90;;;;;;5092772;28;20168;-70
2022/01/23 06:20:45;;;;;;;28.13;13.50;;;3.30;99.90;;;;;;5077458;28;20035;-70
2022/01/23 06:23:11;;;;;;;31.00;13.73;;;3.30;99.90;;;;;;5079546;28;20094;-69
2022/01/23 06:25:37;;;;;;;31.45;13.88;;;3.30;99.90;;;;;;5090664;28;20457;-70
2022/01/23 06:28:05;;;;;;;32.70;14.15;;;3.30;99.90;;;;;;5091366;28;20217;-70
2022/01/23 06:30:32;;;;;;;32.47;13.68;;;3.30;99.90;;;;;;5090525;28;20028;-70
2022/01/23 06:32:58;;;;;;;31.95;14.48;;;3.30;99.90;;;;;;5074186;28;20055;-69
2022/01/23 06:35:24;;;;;;;31.23;15.10;;;3.30;99.90;;;;;;5082063;28;20733;-69
2022/01/23 06:37:49;;;;;;;31.33;14.43;;;3.30;99.90;;;;;;5075894;28;20032;-69
2022/01/23 06:40:16;;;;;;;31.77;14.27;;;3.30;99.90;;;;;;5085337;28;20501;-70
2022/01/23 06:42:41;;;;;;;33.50;14.32;;;3.30;99.90;;;;;;5078961;28;20024;-70
2022/01/23 06:45:07;;;;;;;31.98;14.57;;;3.30;99.90;;;;;;5089396;28;20445;-70
2022/01/23 06:47:33;;;;;;;34.00;15.45;;;3.30;99.90;;;;;;5078931;28;20036;-70
2022/01/23 06:49:59;;;;;;;36.47;16.38;;;3.30;99.90;;;;;;5085920;28;20050;-70
2022/01/23 06:52:25;;;;;;;33.90;14.82;;;3.30;99.90;;;;;;5110722;28;20035;-69
2022/01/23 06:54:50;;;;;;;28.73;14.15;;;3.30;99.90;;;;;;5081993;28;20069;-69
2022/01/23 06:57:16;;;;;;;34.17;15.43;;;3.30;99.90;;;;;;5074272;28;20097;-69
2022/01/23 06:59:42;;;;;;;36.33;15.48;;;3.30;99.90;;;;;;5088136;28;20028;-70
2022/01/23 07:02:09;;;;;;;31.23;14.02;;;3.30;99.90;;;;;;5084483;28;20039;-70
2022/01/23 07:04:34;;;;;;;37.42;15.68;;;3.30;99.90;;;;;;5083816;28;20044;-69
2022/01/23 07:07:00;;;;;;;39.92;17.77;;;3.40;99.90;;;;;;5073271;28;20027;-67
2022/01/23 07:09:26;;;;;;;32.33;15.63;;;3.30;99.90;;;;;;5089433;28;20032;-69
2022/01/23 07:11:51;;;;;;;38.47;15.48;;;3.40;99.90;;;;;;5089068;28;20496;-70
2022/01/23 07:14:17;;;;;;;29.23;14.65;;;3.40;99.90;;;;;;5086516;28;20417;-70
2022/01/23 07:16:42;;;;;;;31.17;13.80;;;3.40;99.90;;;;;;5083378;28;20024;-70
2022/01/23 07:19:08;;;;;;;30.85;14.00;;;3.40;99.90;;;;;;5079037;28;20020;-69
2022/01/23 07:21:34;;;;;;;32.28;16.05;;;3.30;99.90;;;;;;5080482;28;20028;-69
2022/01/23 07:23:59;;;;;;;30.52;14.35;;;3.30;99.90;;;;;;5092747;28;20027;-70
2022/01/23 07:26:27;;;;;;;32.83;14.60;;;3.30;99.90;;;;;;5073701;28;20034;-69
2022/01/23 07:28:55;;;;;;;33.22;15.05;;;3.30;99.90;;;;;;5079922;28;20034;-70
2022/01/23 07:34:06;;;;;;;35.08;15.23;;;3.30;99.90;;;;;;5091484;28;20387;-69
2022/01/23 07:36:33;;;;;;;33.05;14.43;;;3.30;99.90;;;;;;5093778;28;20373;-70
2022/01/23 07:38:59;;;;;;;33.45;15.70;;;3.30;99.90;;;;;;5084360;28;20034;-70
2022/01/23 07:41:24;;;;;;;28.77;14.30;;;3.30;99.90;;;;;;5086447;28;20024;-69
2022/01/23 07:43:50;;;;;;;32.58;15.20;;;3.30;99.90;;;;;;5089970;28;20437;-69
2022/01/23 07:46:16;;;;;;;34.22;14.73;;;3.40;99.90;;;;;;5087499;28;20062;-70
2022/01/23 07:48:41;;;;;;;34.10;15.13;;;3.30;99.90;;;;;;5072339;28;20031;-70
2022/01/23 07:51:07;;;;;;;33.10;14.85;;;3.40;99.90;;;;;;5080050;28;20144;-70
2022/01/23 07:53:33;;;;;;;34.58;14.05;;;3.40;99.90;;;;;;5081179;28;20088;-70
2022/01/23 07:55:59;;;;;;;31.60;14.88;;;3.30;99.90;;;;;;5078269;28;20437;-69
2022/01/23 07:58:24;;;;;;;33.58;14.48;;;3.40;99.90;;;;;;5079406;28;20050;-69
2022/01/23 08:00:50;;;;;;;32.85;15.20;;;3.30;99.90;;;;;;5080845;28;20028;-69
2022/01/23 08:03:16;;;;;;;34.67;14.82;;;3.40;99.90;;;;;;5080872;28;20028;-70
2022/01/23 08:05:45;;;;;;;34.30;16.10;;;3.30;99.90;;;;;;5095036;28;20024;-69
2022/01/23 08:08:11;;;;;;;33.83;14.75;;;3.40;99.90;;;;;;5083984;28;20127;-69
2022/01/23 08:10:37;;;;;;;31.90;14.52;;;3.40;99.90;;;;;;5087501;28;20031;-70
2022/01/23 08:13:03;;;;;;;36.97;16.08;;;3.40;99.90;;;;;;5083282;28;20036;-70
2022/01/23 08:15:30;;;;;;;36.58;15.27;;;3.40;99.90;;;;;;5084054;28;20028;-69
2022/01/23 08:18:04;;;;;;;38.03;15.50;;;3.40;99.90;;;;;;5090095;28;20031;-70
2022/01/23 08:20:32;;;;;;;38.90;16.02;;;3.40;99.90;;;;;;5083614;28;20035;-70
2022/01/23 08:22:59;;;;;;;36.05;16.00;;;3.40;99.90;;;;;;5089400;28;20123;-70
2022/01/23 08:25:25;;;;;;;34.00;16.10;;;3.40;99.90;;;;;;5081961;28;20054;-69
2022/01/23 08:27:51;;;;;;;36.70;15.55;;;3.40;99.90;;;;;;5072601;28;20426;-69
2022/01/23 08:30:16;;;;;;;34.80;15.80;;;3.40;99.90;;;;;;5077545;28;20023;-70
2022/01/23 08:32:42;;;;;;;34.75;15.63;;;3.50;99.90;;;;;;5073854;28;20054;-70
2022/01/23 08:35:08;;;;;;;32.88;15.85;;;3.50;99.90;;;;;;5077022;28;20032;-69
2022/01/23 08:37:34;;;;;;;35.05;16.95;;;3.50;99.90;;;;;;5084356;28;20031;-70
2022/01/23 08:40:00;;;;;;;37.47;16.10;;;3.50;99.90;;;;;;5088285;28;20053;-69
2022/01/23 08:42:26;;;;;;;43.17;20.45;;;3.50;99.90;;;;;;5087735;28;20060;-70
2022/01/23 08:44:52;;;;;;;41.35;18.95;;;3.50;99.90;;;;;;5094285;28;20460;-70
2022/01/23 08:47:18;;;;;;;36.22;16.20;;;3.50;99.90;;;;;;5094132;28;20031;-69
2022/01/23 08:49:47;;;;;;;34.60;15.82;;;3.50;99.90;;;;;;5094088;28;20020;-70
2022/01/23 08:52:21;;;;;;;42.90;18.45;;;3.60;99.90;;;;;;5086573;28;20072;-70
2022/01/23 08:54:50;;;;;;;44.72;18.48;;;3.60;99.90;;;;;;5091486;28;20129;-70
2022/01/23 08:57:16;;;;;;;38.45;18.17;;;3.60;99.90;;;;;;5084873;28;20028;-70
2022/01/23 08:59:42;;;;;;;42.17;17.27;;;3.70;99.90;;;;;;5086032;28;20058;-70
2022/01/23 09:02:09;;;;;;;37.72;16.88;;;3.70;99.90;;;;;;5082104;28;20078;-69
2022/01/23 09:04:35;;;;;;;40.35;17.35;;;3.70;99.90;;;;;;5092175;28;20391;-70
2022/01/23 09:07:01;;;;;;;38.75;16.70;;;3.70;99.90;;;;;;5094508;28;20059;-70
2022/01/23 09:09:31;;;;;;;39.55;17.65;;;3.70;99.90;;;;;;5091468;28;20035;-70
2022/01/23 09:12:05;;;;;;;39.20;16.45;;;3.80;99.90;;;;;;5108397;28;20020;-70
2022/01/23 09:14:31;;;;;;;45.45;17.70;;;3.80;99.90;;;;;;5091394;27;20041;-69
2022/01/23 09:16:57;;;;;;;43.20;18.45;;;3.80;99.90;;;;;;5087676;28;20020;-70
2022/01/23 09:19:25;;;;;;;44.83;20.50;;;3.80;99.90;;;;;;5079611;28;20028;-70
2022/01/23 09:21:52;;;;;;;44.65;19.00;;;3.80;99.90;;;;;;5081414;28;20044;-70
2022/01/23 09:24:19;;;;;;;45.30;18.90;;;3.80;99.90;;;;;;5088948;28;20114;-70
2022/01/23 09:26:52;;;;;;;37.90;17.05;;;3.90;99.90;;;;;;5079008;28;20032;-70
2022/01/23 09:29:25;;;;;;;;;;;3.90;99.90;;;;;;5082521;28;20467;-70
2022/01/23 09:31:52;;;;;;;40.80;17.65;;;3.90;99.90;;;;;;5084228;28;19995;-69
2022/01/23 09:34:20;;;;;;;37.90;16.75;;;3.90;99.90;;;;;;5105265;27;20043;-70
2022/01/23 09:36:46;;;;;;;37.38;17.85;;;4.00;99.90;;;;;;5085563;28;20031;-70
2022/01/23 09:39:15;;;;;;;39.92;18.17;;;4.00;99.90;;;;;;5085605;28;20074;-70
2022/01/23 09:41:46;;;;;;;39.05;16.75;;;4.00;99.90;;;;;;5080026;28;20024;-69
2022/01/23 09:44:15;;;;;;;39.65;18.80;;;4.00;99.90;;;;;;5076031;28;20020;-69
2022/01/23 09:46:45;;;;;;;37.65;17.98;;;4.10;99.90;;;;;;5080376;28;20106;-70
2022/01/23 09:49:15;;;;;;;36.03;16.80;;;4.10;99.90;;;;;;5090729;27;20084;-70
2022/01/23 09:51:43;;;;;;;34.15;16.15;;;4.10;99.90;;;;;;5084103;28;20028;-68
2022/01/23 09:54:14;;;;;;;36.55;18.08;;;4.10;99.90;;;;;;5081331;28;20080;-70
2022/01/23 09:56:41;;;;;;;34.78;16.95;;;4.10;99.90;;;;;;5093232;28;20477;-70
2022/01/23 09:59:15;;;;;;;33.22;16.75;;;4.10;99.90;;;;;;5081337;28;20077;-70
2022/01/23 10:01:41;;;;;;;31.80;16.27;;;4.20;99.90;;;;;;5081356;28;20051;-68
2022/01/23 10:04:08;;;;;;;36.50;17.35;;;4.20;99.90;;;;;;5087132;27;20028;-71
2022/01/23 10:06:34;;;;;;;33.40;17.83;;;4.30;99.90;;;;;;5076077;28;20048;-70
2022/01/23 10:09:01;;;;;;;37.72;18.05;;;4.30;99.90;;;;;;5079626;28;20122;-70
2022/01/23 10:11:35;;;;;;;37.38;18.85;;;4.30;99.90;;;;;;5086974;28;20024;-71
2022/01/23 10:14:00;;;;;;;35.28;18.17;;;4.40;99.90;;;;;;5076725;28;20028;-69
2022/01/23 10:16:27;;;;;;;33.47;16.35;;;4.40;99.90;;;;;;5082607;28;20383;-70
2022/01/23 10:18:53;;;;;;;36.47;18.75;;;4.30;99.90;;;;;;5105682;28;20420;-71
2022/01/23 10:21:20;;;;;;;32.53;16.40;;;4.40;99.90;;;;;;5081125;28;20032;-70
2022/01/23 10:23:46;;;;;;;29.15;15.93;;;4.40;99.90;;;;;;5075289;28;20511;-70
2022/01/23 10:26:34;;;;;;;40.75;20.75;;;4.40;99.90;;;;;;5090103;28;20180;-70
2022/01/23 10:29:28;;;;;;;36.38;19.83;;;4.40;99.90;;;;;;5080660;28;20088;-69
2022/01/23 10:32:03;;;;;;;31.65;16.40;;;4.40;99.90;;;;;;5081818;28;20032;-70
2022/01/23 10:34:44;;;;;;;32.90;16.52;;;4.50;99.90;;;;;;5090090;28;20020;-70
2022/01/23 10:37:12;;;;;;;33.10;15.50;;;4.50;99.90;;;;;;5077490;28;20417;-70
2022/01/23 10:39:47;;;;;;;31.20;15.32;;;4.50;99.90;;;;;;5086985;28;20057;-71
2022/01/23 10:42:38;;;;;;;30.90;16.45;;;4.60;99.90;;;;;;5083968;28;20023;-69
2022/01/23 10:47:55;;;;;;;31.95;15.85;;;4.60;99.90;;;;;;5099577;28;20399;-69
2022/01/23 10:50:25;;;;;;;34.80;16.55;;;4.60;99.90;;;;;;5086743;28;20027;-70
2022/01/23 10:52:53;;;;;;;32.03;16.58;;;4.60;99.90;;;;;;5087637;28;20034;-69
2022/01/23 10:55:35;;;;;;;30.25;15.38;;;4.70;99.90;;;;;;5089864;28;20020;-69
2022/01/23 10:58:06;;;;;;;32.20;16.35;;;4.70;99.90;;;;;;5088460;28;20020;-70
2022/01/23 11:00:39;;;;;;;28.27;14.50;;;4.70;99.90;;;;;;5086154;28;20027;-69
2022/01/23 11:03:17;;;;;;;24.42;13.85;;;4.80;99.90;;;;;;5092190;28;20023;-70
2022/01/23 11:05:44;;;;;;;28.83;14.68;;;4.80;99.90;;;;;;5082156;28;20024;-70
2022/01/23 11:08:22;;;;;;;25.70;14.35;;;4.80;99.90;;;;;;5088443;28;20028;-70
2022/01/23 11:10:59;;;;;;;25.17;13.15;;;4.90;99.90;;;;;;5087346;28;20023;-69
2022/01/23 11:19:21;;;;;;;21.20;11.60;;;5.00;99.90;;;;;;5108641;28;20039;-69
2022/01/23 11:21:47;;;;;;;22.65;12.27;;;5.00;99.90;;;;;;5082826;28;20024;-70
2022/01/23 11:24:13;;;;;;;22.48;11.50;;;5.00;99.90;;;;;;5086460;28;20689;-69
2022/01/23 11:26:40;;;;;;;22.92;11.93;;;5.00;99.90;;;;;;5083863;28;20031;-69
2022/01/23 11:29:15;;;;;;;22.15;11.57;;;5.00;99.90;;;;;;5084459;28;20479;-69
2022/01/23 11:31:43;;;;;;;20.27;11.13;;;5.00;99.90;;;;;;5090303;28;20563;-69
2022/01/23 11:34:15;;;;;;;22.27;10.90;;;5.10;99.90;;;;;;5086674;28;20047;-71
2022/01/23 11:36:41;;;;;;;22.35;11.38;;;5.10;99.90;;;;;;5093331;28;20028;-68
2022/01/23 11:39:13;;;;;;;25.05;11.05;;;5.10;99.90;;;;;;5085783;28;20024;-69
2022/01/23 11:50:44;;;;;;;19.08;10.18;;;5.20;99.90;;;;;;5099646;28;20526;-69
2022/01/23 11:53:49;;;;;;;19.38;10.23;;;5.20;99.90;;;;;;5077299;28;20042;-69
2022/01/23 11:59:21;;;;;;;14.95;8.40;;;5.30;99.90;;;;;;5110971;28;20019;-69
2022/01/23 12:02:07;;;;;;;14.77;8.90;;;5.30;99.90;;;;;;5087230;28;20023;-69
2022/01/23 12:04:34;;;;;;;17.83;9.95;;;5.40;99.90;;;;;;5093157;28;20031;-69
2022/01/23 12:07:12;;;;;;;14.85;8.48;;;5.40;99.90;;;;;;5093972;28;20079;-70
2022/01/23 12:09:44;;;;;;;16.83;9.05;;;5.40;99.90;;;;;;5085788;28;20290;-69
2022/01/23 12:17:22;;;;;;;12.85;7.75;;;5.50;99.90;;;;;;5119746;27;20027;-68
2022/01/23 12:19:57;;;;;;;12.43;7.40;;;5.60;99.90;;;;;;5117889;27;20038;-69
2022/01/23 12:22:28;;;;;;;12.80;7.68;;;5.60;99.90;;;;;;5082608;28;20028;-69
2022/01/23 12:27:32;;;;;;;12.82;7.68;;;5.60;99.90;;;;;;5109158;28;20072;-68
2022/01/23 12:30:15;;;;;;;12.63;6.85;;;5.70;99.90;;;;;;5092803;28;20444;-68
2022/01/23 12:32:42;;;;;;;9.15;5.65;;;5.70;99.90;;;;;;5098131;28;20131;-68
2022/01/23 12:35:10;;;;;;;9.20;5.20;;;5.70;99.90;;;;;;5109440;28;20024;-69
2022/01/23 12:38:02;;;;;;;8.38;5.65;;;5.70;99.90;;;;;;5084088;28;20020;-68
2022/01/23 12:40:37;;;;;;;8.27;5.00;;;5.80;99.90;;;;;;5076610;28;20024;-68
2022/01/23 12:43:25;;;;;;;12.73;6.38;;;5.80;99.90;;;;;;5075077;28;20762;-69
2022/01/23 12:46:08;;;;;;;11.02;6.45;;;5.80;99.90;;;;;;5076570;28;20024;-68
2022/01/23 12:48:36;;;;;;;9.43;5.88;;;5.80;99.90;;;;;;5076668;28;20034;-69
2022/01/23 12:51:06;;;;;;;7.20;4.65;;;5.80;99.90;;;;;;5072191;28;20523;-69
2022/01/23 12:53:58;;;;;;;5.90;3.92;;;5.80;99.90;;;;;;5078878;28;20409;-69
2022/01/23 12:56:33;;;;;;;3.60;2.40;;;5.80;99.90;;;;;;5049128;28;20081;-69
2022/01/23 12:59:07;;;;;;;9.18;5.50;;;5.70;99.90;;;;;;5084099;28;20044;-68
2022/01/23 13:01:34;;;;;;;2.15;1.83;;;5.70;99.90;;;;;;5083027;28;20601;-68
2022/01/23 13:04:06;;;;;;;2.67;1.92;;;5.70;99.90;;;;;;5088105;28;20471;-69
2022/01/23 13:06:36;;;;;;;1.05;0.98;;;5.70;99.90;;;;;;5083099;28;20474;-69
2022/01/23 13:12:11;;;;;;;1.42;1.33;;;5.80;99.90;;;;;;5100506;28;20015;-68
2022/01/23 13:31:43;;;;;;;3.10;2.58;;;5.80;99.90;;;;;;5088751;28;20016;-69
2022/01/23 13:34:22;;;;;;;4.00;2.28;;;5.80;99.90;;;;;;5083094;28;20526;-68
2022/01/23 13:37:00;;;;;;;2.20;1.92;;;5.80;99.90;;;;;;5076354;28;20016;-69
2022/01/23 13:39:32;;;;;;;2.80;2.30;;;5.80;99.90;;;;;;5088884;28;20044;-68
2022/01/23 14:02:26;;;;;;;2.90;2.17;;;5.70;99.90;;;;;;5100209;28;20023;-69
2022/01/23 14:05:02;;;;;;;3.75;2.35;;;5.70;99.90;;;;;;5075724;28;20526;-69
2022/01/23 14:07:29;;;;;;;4.53;2.40;;;5.70;99.90;;;;;;5101022;28;20069;-69
2022/01/23 14:10:11;;;;;;;3.42;2.55;;;5.70;99.90;;;;;;5065852;28;20028;-68
2022/01/23 14:12:37;;;;;;;4.17;2.80;;;5.70;99.90;;;;;;5055092;28;20039;-69
2022/01/23 14:15:13;;;;;;;3.67;2.83;;;5.70;99.90;;;;;;5055235;28;20346;-69
2022/01/23 14:17:39;;;;;;;2.83;2.40;;;5.70;99.90;;;;;;5055408;28;20451;-68
2022/01/23 14:20:08;;;;;;;3.20;2.47;;;5.70;99.90;;;;;;5064393;28;20021;-69
2022/01/23 14:22:37;;;;;;;3.30;2.17;;;5.70;99.90;;;;;;5070580;28;20391;-69
2022/01/23 14:25:11;;;;;;;2.05;1.85;;;5.70;99.90;;;;;;5074004;28;20165;-69
2022/01/23 14:27:37;;;;;;;3.00;2.08;;;5.70;99.90;;;;;;5074339;28;20032;-69
2022/01/23 14:30:10;;;;;;;3.65;2.22;;;5.70;99.90;;;;;;5092661;28;20054;-69
2022/01/23 14:32:47;;;;;;;2.83;2.25;;;5.70;99.90;;;;;;5066651;28;20073;-69
2022/01/23 14:35:29;;;;;;;2.67;2.22;;;5.70;99.90;;;;;;5074633;28;20043;-69
2022/01/23 14:38:08;;;;;;;9.85;4.68;;;5.70;99.90;;;;;;5073455;28;20024;-69
2022/01/23 14:40:34;;;;;;;8.35;4.70;;;5.70;99.90;;;;;;5073654;28;20112;-69
2022/01/23 14:43:05;;;;;;;8.07;4.40;;;5.70;99.90;;;;;;5074526;28;20107;-69
2022/01/23 14:45:34;;;;;;;5.65;3.95;;;5.70;99.90;;;;;;5078294;28;20424;-69
2022/01/23 14:48:01;;;;;;;7.15;3.60;;;5.70;99.90;;;;;;5084589;28;20027;-68
2022/01/23 14:50:30;;;;;;;18.23;8.75;;;5.70;99.90;;;;;;5072848;28;20024;-69
2022/01/23 14:52:56;;;;;;;31.02;14.90;;;5.70;99.90;;;;;;5070917;28;20114;-69
2022/01/23 14:55:21;;;;;;;19.88;10.18;;;5.60;99.90;;;;;;5084938;28;20111;-69
2022/01/23 14:57:47;;;;;;;19.98;10.48;;;5.60;99.90;;;;;;5078683;28;20028;-69
2022/01/23 15:00:16;;;;;;;7.88;4.88;;;5.60;99.90;;;;;;5080929;28;20024;-69
2022/01/23 15:02:42;;;;;;;5.47;3.63;;;5.60;99.90;;;;;;5083917;28;20059;-69
2022/01/23 15:05:08;;;;;;;7.43;4.30;;;5.60;99.90;;;;;;5074178;28;20548;-68
2022/01/23 15:07:36;;;;;;;7.65;4.72;;;5.60;99.90;;;;;;5079106;28;20023;-69
2022/01/23 15:10:04;;;;;;;6.60;4.57;;;5.60;99.90;;;;;;5078610;28;20035;-69
2022/01/23 15:12:30;;;;;;;12.63;6.47;;;5.60;99.90;;;;;;5081726;28;20032;-69
2022/01/23 15:14:55;;;;;;;8.07;4.85;;;5.60;99.90;;;;;;5088532;28;20016;-69
2022/01/23 15:17:21;;;;;;;10.63;6.00;;;5.60;99.90;;;;;;5085805;28;20020;-68
2022/01/23 15:19:47;;;;;;;13.90;9.15;;;5.60;99.90;;;;;;5071405;28;20048;-69
2022/01/23 15:22:13;;;;;;;10.85;6.65;;;5.60;99.90;;;;;;5079854;28;20036;-69
2022/01/23 15:24:39;;;;;;;11.02;6.53;;;5.60;99.90;;;;;;5065871;28;20027;-69
2022/01/23 15:27:05;;;;;;;12.20;6.00;;;5.50;99.90;;;;;;5086017;28;20032;-67
2022/01/23 15:29:31;;;;;;;10.63;6.43;;;5.50;99.90;;;;;;5078536;28;20081;-69
2022/01/23 15:31:57;;;;;;;10.00;6.28;;;5.40;99.90;;;;;;5063094;28;20038;-67
2022/01/23 15:34:23;;;;;;;11.75;6.00;;;5.40;99.90;;;;;;5066716;28;20395;-69
2022/01/23 15:36:56;;;;;;;8.70;5.28;;;5.40;99.90;;;;;;5062799;28;20058;-68
2022/01/23 15:39:25;;;;;;;8.63;4.90;;;5.30;99.90;;;;;;5072750;28;20500;-68
2022/01/23 15:41:54;;;;;;;8.50;5.28;;;5.40;99.90;;;;;;5090822;28;20028;-68
2022/01/23 15:44:20;;;;;;;8.93;5.25;;;5.30;99.90;;;;;;5090276;28;20027;-66
2022/01/23 15:46:47;;;;;;;9.35;5.25;;;5.30;99.90;;;;;;5071285;28;20028;-66
2022/01/23 15:49:13;;;;;;;10.73;5.68;;;5.30;99.90;;;;;;5058528;28;20024;-67
2022/01/23 15:51:39;;;;;;;10.77;5.47;;;5.30;99.90;;;;;;5065647;28;20096;-66
2022/01/23 15:54:07;;;;;;;9.70;5.47;;;5.30;99.90;;;;;;5070027;28;20024;-68
2022/01/23 15:56:33;;;;;;;9.98;5.75;;;5.30;99.90;;;;;;5070734;28;20022;-67
2022/01/23 15:58:59;;;;;;;11.90;5.40;;;5.30;99.90;;;;;;5070700;28;20118;-67
2022/01/23 16:01:24;;;;;;;9.10;5.55;;;5.20;99.90;;;;;;5064822;28;20032;-67
2022/01/23 16:03:50;;;;;;;9.55;5.53;;;5.30;99.90;;;;;;5073309;28;20023;-68
2022/01/23 16:06:16;;;;;;;10.57;5.63;;;5.30;99.90;;;;;;5078227;28;20039;-68
2022/01/23 16:08:41;;;;;;;8.57;5.28;;;5.30;99.90;;;;;;5064679;28;20024;-68
2022/01/23 16:11:07;;;;;;;8.27;5.72;;;5.30;99.90;;;;;;5059035;28;20438;-68
2022/01/23 16:13:36;;;;;;;9.98;6.25;;;5.30;99.90;;;;;;5064379;28;20498;-69
2022/01/23 16:16:05;;;;;;;10.80;6.70;;;5.30;99.90;;;;;;5065647;28;20388;-68
2022/01/23 16:18:31;;;;;;;10.95;7.20;;;5.20;99.90;;;;;;5057556;28;20025;-68
2022/01/23 16:21:07;;;;;;;9.45;5.80;;;5.20;99.90;;;;;;5060280;28;20032;-69
2022/01/23 16:23:34;;;;;;;9.45;5.82;;;5.20;99.90;;;;;;5056423;28;20017;-68
2022/01/23 16:26:00;;;;;;;9.35;5.65;;;5.20;99.90;;;;;;5059277;28;20100;-69
2022/01/23 16:28:26;;;;;;;10.57;5.38;;;5.20;99.90;;;;;;5076117;28;20036;-69